Latest Weather Observations for Point Wilson

IDV60901

Issued at 7:21 pm EST Monday 27 June 2016 (issued every 10 minutes, with the page automatically refreshed every 10 minutes)

About weather observations | Map of Melbourne area stations | Latest observations for Melbourne area | Other Formats
Station Details ID: 087166 Name: POINT WILSON Lat: -38.10 Lon: 144.54 Height: 18.0 m
Data from the previous 72 hours. | See also: Recent months for locations in Victoria
Date/Time
EST
Temp
°C
App
Temp
°C
Dew
Point
°C
Rel
Hum
%
Delta-T
°C
Wind Press
QNH
hPa
Press
MSL
hPa
Rain since
9am
mm
Dir  Spd
km/h
Gust
km/h
Spd
kts
Gust
kts
27/07:00pm - - - - - NW 20 24 11 13 - - -
27/06:30pm - - - - - NW 17 19 9 10 - - -
27/06:00pm - - - - - NNW 11 13 6 7 - - -
27/05:30pm - - - - - WNW 11 13 6 7 - - -
27/05:00pm - - - - - WNW 13 15 7 8 - - -
27/04:30pm - - - - - W 17 19 9 10 - - -
27/04:00pm - - - - - W 22 24 12 13 - - -
27/03:30pm - - - - - W 17 20 9 11 - - -
27/03:00pm - - - - - W 22 28 12 15 - - -
27/02:30pm - - - - - W 24 28 13 15 - - -
27/02:00pm - - - - - W 26 30 14 16 - - -
27/01:30pm - - - - - WSW 28 32 15 17 - - -
27/01:00pm - - - - - W 32 37 17 20 - - -
27/12:30pm - - - - - W 33 39 18 21 - - -
27/12:00pm - - - - - W 32 37 17 20 - - -
27/11:30am - - - - - W 19 24 10 13 - - -
27/11:00am - - - - - W 15 19 8 10 - - -
27/10:30am - - - - - W 19 24 10 13 - - -
27/10:00am - - - - - WNW 7 11 4 6 - - -
27/09:30am - - - - - CALM 0 2 0 1 - - -
27/09:00am - - - - - N 7 9 4 5 - - -
27/08:30am - - - - - N 11 11 6 6 - - -
27/08:00am - - - - - N 15 17 8 9 - - -
27/07:30am - - - - - N 13 17 7 9 - - -
27/07:00am - - - - - NNW 7 9 4 5 - - -
27/06:30am - - - - - N 11 15 6 8 - - -
27/06:00am - - - - - N 15 17 8 9 - - -
27/05:30am - - - - - N 17 19 9 10 - - -
27/05:00am - - - - - N 15 17 8 9 - - -
27/04:30am - - - - - N 15 17 8 9 - - -
27/04:00am - - - - - NNW 13 17 7 9 - - -
27/03:30am - - - - - N 9 13 5 7 - - -
27/03:00am - - - - - N 9 11 5 6 - - -
27/02:30am - - - - - NNW 11 17 6 9 - - -
27/02:00am - - - - - NNW 17 19 9 10 - - -
27/01:30am - - - - - N 17 19 9 10 - - -
27/01:00am - - - - - N 17 20 9 11 - - -
27/12:30am - - - - - N 20 24 11 13 - - -
27/12:00am - - - - - N 24 28 13 15 - - -
 
Date/Time
EST
Temp
°C
App
Temp
°C
Dew
Point
°C
Rel
Hum
%
Delta-T
°C
Wind Press
QNH
hPa
Press
MSL
hPa
Rain since
9am
mm
Dir  Spd
km/h
Gust
km/h
Spd
kts
Gust
kts
26/11:30pm - - - - - N 26 30 14 16 - - -
26/11:00pm - - - - - N 26 30 14 16 - - -
26/10:30pm - - - - - N 26 30 14 16 - - -
26/10:00pm - - - - - N 26 30 14 16 - - -
26/09:30pm - - - - - N 28 33 15 18 - - -
26/09:00pm - - - - - N 26 30 14 16 - - -
26/08:30pm - - - - - N 28 33 15 18 - - -
26/08:00pm - - - - - N 30 33 16 18 - - -
26/07:30pm - - - - - N 28 33 15 18 - - -
26/07:00pm - - - - - N 30 32 16 17 - - -
26/06:30pm - - - - - N 28 32 15 17 - - -
26/06:00pm - - - - - N 24 28 13 15 - - -
26/05:30pm - - - - - N 28 32 15 17 - - -
26/05:00pm - - - - - N 28 32 15 17 - - -
26/04:30pm - - - - - N 28 32 15 17 - - -
26/04:00pm - - - - - N 32 37 17 20 - - -
26/03:30pm - - - - - N 30 39 16 21 - - -
26/03:00pm - - - - - NNW 35 41 19 22 - - -
26/02:30pm - - - - - NNW 33 39 18 21 - - -
26/02:00pm - - - - - NW 33 39 18 21 - - -
26/01:30pm - - - - - NNW 32 37 17 20 - - -
26/01:00pm - - - - - NNW 19 28 10 15 - - -
26/12:30pm - - - - - N 20 24 11 13 - - -
26/12:00pm - - - - - N 17 24 9 13 - - -
26/11:30am - - - - - NNE 15 19 8 10 - - -
26/11:00am - - - - - N 19 22 10 12 - - -
26/10:30am - - - - - N 17 20 9 11 - - -
26/10:00am - - - - - N 15 17 8 9 - - -
26/09:30am - - - - - N 13 15 7 8 - - -
26/09:00am - - - - - N 11 13 6 7 - - -
26/08:30am - - - - - N 15 17 8 9 - - -
26/08:00am - - - - - N 20 22 11 12 - - -
26/07:30am - - - - - N 15 17 8 9 - - -
26/07:00am - - - - - N 11 13 6 7 - - -
26/06:30am - - - - - N 7 11 4 6 - - -
26/06:00am - - - - - N 7 11 4 6 - - -
26/05:30am - - - - - N 9 11 5 6 - - -
26/05:00am - - - - - NW 9 11 5 6 - - -
26/04:30am - - - - - NW 4 7 2 4 - - -
26/04:00am - - - - - WSW 6 9 3 5 - - -
26/03:30am - - - - - W 9 11 5 6 - - -
26/03:00am - - - - - WNW 13 15 7 8 - - -
26/02:30am - - - - - NW 13 15 7 8 - - -
26/02:00am - - - - - WNW 13 15 7 8 - - -
26/01:30am - - - - - NW 9 11 5 6 - - -
26/01:00am - - - - - NW 9 11 5 6 - - -
26/12:30am - - - - - NNW 11 13 6 7 - - -
26/12:00am - - - - - NW 11 13 6 7 - - -
 
Date/Time
EST
Temp
°C
App
Temp
°C
Dew
Point
°C
Rel
Hum
%
Delta-T
°C
Wind Press
QNH
hPa
Press
MSL
hPa
Rain since
9am
mm
Dir  Spd
km/h
Gust
km/h
Spd
kts
Gust
kts
25/11:30pm - - - - - NNW 11 13 6 7 - - -
25/11:00pm - - - - - NW 11 13 6 7 - - -
25/10:30pm - - - - - WNW 11 11 6 6 - - -
25/10:00pm - - - - - WNW 9 11 5 6 - - -
25/09:30pm - - - - - NW 11 13 6 7 - - -
25/09:00pm - - - - - NNW 15 17 8 9 - - -
25/08:30pm - - - - - NW 15 17 8 9 - - -
25/08:00pm - - - - - NW 13 15 7 8 - - -
25/07:30pm - - - - - NW 11 13 6 7 - - -
25/07:00pm - - - - - NNW 11 13 6 7 - - -
25/06:30pm - - - - - N 11 13 6 7 - - -
25/06:00pm - - - - - N 9 9 5 5 - - -
25/05:30pm - - - - - NW 4 7 2 4 - - -
25/05:00pm - - - - - WNW 7 9 4 5 - - -
25/04:30pm - - - - - WNW 11 13 6 7 - - -
25/04:00pm - - - - - WNW 9 11 5 6 - - -
25/03:30pm - - - - - WNW 11 13 6 7 - - -
25/03:00pm - - - - - W 9 11 5 6 - - -
25/02:30pm - - - - - WSW 15 19 8 10 - - -
25/02:00pm - - - - - WSW 17 20 9 11 - - -
25/01:30pm - - - - - W 22 24 12 13 - - -
25/01:00pm - - - - - W 20 26 11 14 - - -
25/12:30pm - - - - - W 24 28 13 15 - - -
25/12:00pm - - - - - W 22 28 12 15 - - -
25/11:30am - - - - - W 22 26 12 14 - - -
25/11:00am - - - - - W 26 30 14 16 - - -
25/10:30am - - - - - W 28 32 15 17 - - -
25/10:00am - - - - - W 28 33 15 18 - - -
25/09:30am - - - - - W 19 26 10 14 - - -
25/09:00am - - - - - NW 19 22 10 12 - - -
25/08:30am - - - - - W 32 37 17 20 - - -
25/08:00am - - - - - W 30 35 16 19 - - -
25/07:30am - - - - - W 28 33 15 18 - - -
25/07:00am - - - - - W 28 32 15 17 - - -
25/06:30am - - - - - W 35 39 19 21 - - -
25/06:00am - - - - - WNW 26 37 14 20 - - -
25/05:30am - - - - - W 30 35 16 19 - - -
25/05:00am - - - - - W 28 37 15 20 - - -
25/04:30am - - - - - WNW 26 32 14 17 - - -
25/04:00am - - - - - WNW 28 39 15 21 - - -
25/03:30am - - - - - WNW 28 39 15 21 - - -
25/03:00am - - - - - W 24 30 13 16 - - -
25/02:30am - - - - - WNW 24 30 13 16 - - -
25/02:00am - - - - - W 32 35 17 19 - - -
25/01:30am - - - - - W 32 39 17 21 - - -
25/01:00am - - - - - W 32 39 17 21 - - -
25/12:30am - - - - - W 22 26 12 14 - - -
25/12:00am - - - - - WSW 22 30 12 16 - - -
 
Date/Time
EST
Temp
°C
App
Temp
°C
Dew
Point
°C
Rel
Hum
%
Delta-T
°C
Wind Press
QNH
hPa
Press
MSL
hPa
Rain since
9am
mm
Dir  Spd
km/h
Gust
km/h
Spd
kts
Gust
kts
24/11:30pm - - - - - WSW 26 32 14 17 - - -
24/11:00pm - - - - - SW 17 26 9 14 - - -
24/10:30pm - - - - - W 30 39 16 21 - - -
24/10:00pm - - - - - WNW 28 35 15 19 - - -
24/09:30pm - - - - - WNW 26 32 14 17 - - -
24/09:00pm - - - - - W 32 41 17 22 - - -
24/08:30pm - - - - - W 39 50 21 27 - - -
24/08:00pm - - - - - W 33 41 18 22 - - -
24/07:30pm - - - - - WNW 28 33 15 18 - - -

Latest Capital City Observations: Canberra | Sydney | Melbourne | Brisbane | Adelaide | Perth | Hobart | Darwin

Other Formats:

Comma delimited format used in spreadsheet applications
http://www.bom.gov.au/fwo/IDV60901/IDV60901.94847.axf

JavaScript Object Notation format (JSON) in row-major order
http://www.bom.gov.au/fwo/IDV60901/IDV60901.94847.json